Time;durP1;ratioP1;P1;durP2;ratioP2;P2;SDS_P1;SDS_P2;PMS_P1;PMS_P2;Temp;Humidity;BMP_temperature;BMP_pressure;BME280_temperature;BME280_humidity;BME280_pressure;Samples;Min_cycle;Max_cycle;Signal;HPM_P1;HPM_P2
2021/12/14 00:00:31;;;;;;;5.78;3.80;;;;;;;;;;4992339;28;20061;-66
2021/12/14 00:02:57;;;;;;;4.07;3.47;;;;;;;;;;4973668;28;20035;-65
2021/12/14 00:05:24;;;;;;;5.25;3.45;;;;;;;;;;4973388;28;20031;-65
2021/12/14 00:07:51;;;;;;;7.60;3.50;;;;;;;;;;4973678;28;20031;-65
2021/12/14 00:12:58;;;;;;;5.57;3.50;;;;;;;;;;4973263;28;20057;-65
2021/12/14 00:15:25;;;;;;;8.65;3.85;;;;;;;;;;4973246;28;20058;-66
2021/12/14 00:17:53;;;;;;;8.18;3.78;;;;;;;;;;4973228;28;20458;-65
2021/12/14 00:20:30;;;;;;;6.32;3.85;;;;;;;;;;5068300;28;20415;-64
2021/12/14 00:25:27;;;;;;;8.27;3.55;;;;;;;;;;5072855;28;20036;-67
2021/12/14 00:27:54;;;;;;;4.05;3.55;;;;;;;;;;4953636;29;20471;-66
2021/12/14 00:30:20;;;;;;;5.15;3.78;;;;;;;;;;4968192;28;20038;-65
2021/12/14 00:32:46;;;;;;;4.10;3.38;;;;;;;;;;4973058;28;20359;-66
2021/12/14 00:35:13;;;;;;;4.65;3.60;;;;;;;;;;4972992;28;20050;-65
2021/12/14 00:37:42;;;;;;;3.97;3.38;;;;;;;;;;4972624;28;20455;-64
2021/12/14 00:40:14;;;;;;;4.50;3.92;;;;;;;;;;4972831;28;20023;-65
2021/12/14 00:42:40;;;;;;;5.00;3.80;;;;;;;;;;4971656;28;20019;-64
2021/12/14 00:45:06;;;;;;;5.65;3.08;;;;;;;;;;4972730;28;20696;-65
2021/12/14 00:47:32;;;;;;;5.60;3.40;;;;;;;;;;4971536;28;20106;-65
2021/12/14 00:49:58;;;;;;;4.03;3.50;;;;;;;;;;4972768;28;20031;-64
2021/12/14 00:52:24;;;;;;;4.30;3.20;;;;;;;;;;5013234;28;20040;-64
2021/12/14 00:54:50;;;;;;;3.80;3.40;;;;;;;;;;5073058;28;20031;-65
2021/12/14 00:57:17;;;;;;;6.68;3.47;;;;;;;;;;5074053;28;20020;-65
2021/12/14 00:59:43;;;;;;;9.43;3.30;;;;;;;;;;5073184;28;20064;-65
2021/12/14 01:02:11;;;;;;;3.65;3.35;;;;;;;;;;5074193;28;20464;-66
2021/12/14 01:04:50;;;;;;;14.02;3.90;;;;;;;;;;5074327;28;20053;-65
2021/12/14 01:07:17;;;;;;;8.15;4.55;;;;;;;;;;5072642;28;20028;-65
2021/12/14 01:09:45;;;;;;;6.90;3.83;;;;;;;;;;5074148;28;20025;-66
2021/12/14 01:12:19;;;;;;;14.77;4.00;;;;;;;;;;5073783;28;20049;-65
2021/12/14 01:15:10;;;;;;;8.63;4.55;;;;;;;;;;5073999;28;20475;-65
2021/12/14 01:17:53;;;;;;;5.82;4.38;;;;;;;;;;4992026;28;20034;-67
2021/12/14 01:20:19;;;;;;;6.53;3.92;;;;;;;;;;5065551;28;20025;-66
2021/12/14 01:22:47;;;;;;;16.50;4.40;;;;;;;;;;5072497;28;20052;-64
2021/12/14 01:25:19;;;;;;;4.35;3.95;;;;;;;;;;5073680;28;20025;-64
2021/12/14 01:27:45;;;;;;;10.88;4.90;;;;;;;;;;5073716;28;20052;-64
2021/12/14 01:30:33;;;;;;;13.20;4.45;;;;;;;;;;5072343;28;20044;-63
2021/12/14 01:33:02;;;;;;;10.70;4.32;;;;;;;;;;5000978;28;20201;-64
2021/12/14 01:35:30;;;;;;;5.57;4.97;;;;;;;;;;4953028;28;20042;-64
2021/12/14 01:38:02;;;;;;;8.43;5.38;;;;;;;;;;4952672;28;20031;-64
2021/12/14 01:40:53;;;;;;;6.38;5.20;;;;;;;;;;4956449;28;20015;-64
2021/12/14 01:43:16;;;;;;;10.95;5.10;;;;;;;;;;4971706;28;20037;-64
2021/12/14 01:45:42;;;;;;;5.75;5.10;;;;;;;;;;4971821;28;20340;-64
2021/12/14 01:48:08;;;;;;;7.43;5.28;;;;;;;;;;4971946;28;20066;-64
2021/12/14 01:50:44;;;;;;;6.32;5.45;;;;;;;;;;4967191;28;20023;-64
2021/12/14 01:53:11;;;;;;;9.48;6.38;;;;;;;;;;5045284;28;20036;-64
2021/12/14 01:55:39;;;;;;;7.47;6.30;;;;;;;;;;5073131;28;20028;-63
2021/12/14 01:58:06;;;;;;;7.35;6.32;;;;;;;;;;5073309;28;20037;-63
2021/12/14 02:00:50;;;;;;;12.95;6.72;;;;;;;;;;5073426;28;20020;-64
2021/12/14 02:03:16;;;;;;;8.50;6.30;;;;;;;;;;4990903;28;20046;-64
2021/12/14 02:05:46;;;;;;;7.10;6.30;;;;;;;;;;4951418;28;20023;-64
2021/12/14 02:08:15;;;;;;;6.78;6.05;;;;;;;;;;4952379;29;20027;-64
2021/12/14 02:10:41;;;;;;;9.27;6.45;;;;;;;;;;4950995;28;20024;-64
2021/12/14 02:13:07;;;;;;;8.50;6.50;;;;;;;;;;4951576;29;20056;-63
2021/12/14 02:15:38;;;;;;;7.57;6.32;;;;;;;;;;4951065;28;20035;-63
2021/12/14 02:18:07;;;;;;;6.90;6.18;;;;;;;;;;4952330;28;20422;-64
2021/12/14 02:20:35;;;;;;;6.82;6.13;;;;;;;;;;5071469;28;20040;-64
2021/12/14 02:23:01;;;;;;;7.35;6.28;;;;;;;;;;5072808;28;20112;-65
2021/12/14 02:25:27;;;;;;;8.52;6.53;;;;;;;;;;5071475;28;20021;-63
2021/12/14 02:27:54;;;;;;;7.10;6.40;;;;;;;;;;5072806;28;20085;-65
2021/12/14 02:30:22;;;;;;;8.73;6.22;;;;;;;;;;5072787;28;20028;-64
2021/12/14 02:32:49;;;;;;;7.35;5.97;;;;;;;;;;5072864;28;20457;-65
2021/12/14 02:35:16;;;;;;;7.85;6.85;;;;;;;;;;5035561;28;20031;-65
2021/12/14 02:37:51;;;;;;;7.70;6.47;;;;;;;;;;4971279;28;20031;-65
2021/12/14 02:40:20;;;;;;;6.43;5.82;;;;;;;;;;4973407;28;20065;-65
2021/12/14 02:42:53;;;;;;;7.03;6.32;;;;;;;;;;4989706;28;20409;-65
2021/12/14 02:45:23;;;;;;;7.75;6.63;;;;;;;;;;4990642;28;20541;-65
2021/12/14 02:47:49;;;;;;;7.07;6.38;;;;;;;;;;4989447;28;20458;-65
2021/12/14 02:50:15;;;;;;;8.02;6.70;;;;;;;;;;4989420;28;20033;-65
2021/12/14 02:52:41;;;;;;;7.22;6.53;;;;;;;;;;5010568;28;20079;-65
2021/12/14 02:55:15;;;;;;;7.40;6.60;;;;;;;;;;4951800;28;20034;-65
2021/12/14 02:57:44;;;;;;;8.13;7.32;;;;;;;;;;4950412;28;20053;-65
2021/12/14 03:00:13;;;;;;;7.20;6.50;;;;;;;;;;4951762;29;20023;-65
2021/12/14 03:02:39;;;;;;;7.55;6.75;;;;;;;;;;4954312;28;20082;-63
2021/12/14 03:05:05;;;;;;;7.68;6.88;;;;;;;;;;4955194;28;20051;-63
2021/12/14 03:07:33;;;;;;;8.68;6.57;;;;;;;;;;4954950;29;20089;-64
2021/12/14 03:10:17;;;;;;;8.63;6.70;;;;;;;;;;4955025;28;20042;-64
2021/12/14 03:12:45;;;;;;;6.70;5.85;;;;;;;;;;4954645;28;20070;-64
2021/12/14 03:15:18;;;;;;;7.30;6.60;;;;;;;;;;4954927;29;20041;-65
2021/12/14 03:17:44;;;;;;;7.35;6.35;;;;;;;;;;4954844;29;20058;-65
2021/12/14 03:20:13;;;;;;;6.30;5.68;;;;;;;;;;5060787;28;20435;-64
2021/12/14 03:22:51;;;;;;;6.95;6.22;;;;;;;;;;5076183;28;20037;-64
2021/12/14 03:25:19;;;;;;;6.47;5.88;;;;;;;;;;5075916;28;20044;-64
2021/12/14 03:27:46;;;;;;;6.70;6.05;;;;;;;;;;4958735;28;20049;-64
2021/12/14 03:30:22;;;;;;;6.70;6.00;;;;;;;;;;4955134;28;20130;-64
2021/12/14 03:32:48;;;;;;;7.13;6.25;;;;;;;;;;4954674;28;20058;-66
2021/12/14 03:35:17;;;;;;;11.57;6.18;;;;;;;;;;4954791;28;20085;-66
2021/12/14 03:37:43;;;;;;;5.93;5.40;;;;;;;;;;4954603;28;20027;-66
2021/12/14 03:40:10;;;;;;;6.85;5.57;;;;;;;;;;4955758;28;20035;-65
2021/12/14 03:42:38;;;;;;;6.70;4.85;;;;;;;;;;4972668;28;20029;-66
2021/12/14 03:45:07;;;;;;;9.77;4.60;;;;;;;;;;4973764;28;20038;-65
2021/12/14 03:47:35;;;;;;;9.57;4.55;;;;;;;;;;4972357;28;20030;-66
2021/12/14 03:50:06;;;;;;;5.60;4.63;;;;;;;;;;4973886;28;20413;-66
2021/12/14 03:52:35;;;;;;;6.28;4.03;;;;;;;;;;5015674;28;20342;-66
2021/12/14 03:55:03;;;;;;;3.88;3.58;;;;;;;;;;5074244;28;20028;-66
2021/12/14 03:57:29;;;;;;;6.00;3.97;;;;;;;;;;5075461;28;20392;-66
2021/12/14 03:59:56;;;;;;;4.25;3.85;;;;;;;;;;5074073;28;20035;-66
2021/12/14 04:02:22;;;;;;;4.43;3.85;;;;;;;;;;5075314;28;20028;-66
2021/12/14 04:04:53;;;;;;;7.47;3.78;;;;;;;;;;5075374;28;20116;-65
2021/12/14 04:07:21;;;;;;;4.05;3.65;;;;;;;;;;5075270;28;20029;-66
2021/12/14 04:09:47;;;;;;;5.35;3.90;;;;;;;;;;5075348;28;20057;-66
2021/12/14 04:12:16;;;;;;;4.20;3.80;;;;;;;;;;5074957;28;20048;-66
2021/12/14 04:14:46;;;;;;;4.40;4.10;;;;;;;;;;5074561;28;20063;-66
2021/12/14 04:17:12;;;;;;;6.72;4.07;;;;;;;;;;5046595;28;20031;-66
2021/12/14 04:19:39;;;;;;;3.92;3.63;;;;;;;;;;5039430;28;20021;-67
2021/12/14 04:22:08;;;;;;;4.47;4.07;;;;;;;;;;5075278;28;20056;-65
2021/12/14 04:24:35;;;;;;;3.88;3.47;;;;;;;;;;5036625;28;20031;-65
2021/12/14 04:27:03;;;;;;;4.25;3.95;;;;;;;;;;4962444;28;20027;-64
2021/12/14 04:29:30;;;;;;;5.05;3.83;;;;;;;;;;4960704;28;20172;-67
2021/12/14 04:31:57;;;;;;;4.70;4.30;;;;;;;;;;4953229;28;20027;-65
2021/12/14 04:34:23;;;;;;;4.20;3.80;;;;;;;;;;4953428;28;20120;-64
2021/12/14 04:36:52;;;;;;;4.78;4.38;;;;;;;;;;4953778;28;20032;-65
2021/12/14 04:53:02;;;;;;;5.05;4.13;;;;;;;;;;5035340;28;20046;-66
2021/12/14 04:55:28;;;;;;;4.25;3.85;;;;;;;;;;5074383;28;20028;-65
2021/12/14 04:57:54;;;;;;;4.25;3.67;;;;;;;;;;5074016;28;20105;-66
2021/12/14 05:00:23;;;;;;;4.50;4.05;;;;;;;;;;5058338;28;20077;-67
2021/12/14 05:02:50;;;;;;;4.95;4.15;;;;;;;;;;4972785;28;20088;-65
2021/12/14 05:05:21;;;;;;;4.07;3.67;;;;;;;;;;4972440;28;20035;-64
2021/12/14 05:09:19;;;;;;;3.97;3.67;;;;;;;;;;4969747;28;20023;-64
2021/12/14 05:10:38;;;;;;;3.80;3.50;;;;;;;;;;4972827;28;20072;-65
2021/12/14 05:13:04;;;;;;;3.83;3.53;;;;;;;;;;4970721;28;20410;-65
2021/12/14 05:15:30;;;;;;;4.78;3.70;;;;;;;;;;4971298;28;20402;-65
2021/12/14 05:17:56;;;;;;;3.92;3.22;;;;;;;;;;4958149;28;20053;-66
2021/12/14 05:20:23;;;;;;;5.13;4.40;;;;;;;;;;5068522;28;20025;-64
2021/12/14 05:22:49;;;;;;;14.27;5.30;;;;;;;;;;4981364;28;20422;-64
2021/12/14 05:25:21;;;;;;;6.47;5.47;;;;;;;;;;4960891;28;20462;-65
2021/12/14 05:27:51;;;;;;;20.30;6.10;;;;;;;;;;4960738;28;20025;-64
2021/12/14 05:30:27;;;;;;;12.35;5.72;;;;;;;;;;4963407;28;20031;-65
2021/12/14 05:33:03;;;;;;;9.38;4.60;;;;;;;;;;4964620;28;20509;-66
2021/12/14 05:35:30;;;;;;;5.85;4.70;;;;;;;;;;4959803;28;20115;-65
2021/12/14 05:37:57;;;;;;;9.80;4.55;;;;;;;;;;4961220;28;20031;-65
2021/12/14 05:43:06;;;;;;;8.18;4.93;;;;;;;;;;4958162;28;20509;-64
2021/12/14 05:45:33;;;;;;;7.55;4.43;;;;;;;;;;4959668;28;20031;-64
2021/12/14 05:47:59;;;;;;;6.65;3.85;;;;;;;;;;4958919;28;20046;-65
2021/12/14 05:50:28;;;;;;;5.85;4.50;;;;;;;;;;4961495;28;20030;-65
2021/12/14 05:52:55;;;;;;;10.00;4.50;;;;;;;;;;4963829;28;20034;-65
2021/12/14 05:55:24;;;;;;;7.82;4.82;;;;;;;;;;4961959;28;20034;-65
2021/12/14 05:57:51;;;;;;;5.97;3.60;;;;;;;;;;4971843;28;20124;-65
2021/12/14 06:00:17;;;;;;;5.15;4.13;;;;;;;;;;4971733;28;20035;-64
2021/12/14 06:02:43;;;;;;;5.53;3.90;;;;;;;;;;4971522;28;20031;-65
2021/12/14 06:05:14;;;;;;;8.27;4.20;;;;;;;;;;4971786;28;20663;-67
2021/12/14 06:07:41;;;;;;;6.05;4.07;;;;;;;;;;4971738;28;20494;-66
2021/12/14 06:10:07;;;;;;;6.15;4.28;;;;;;;;;;4971447;28;20474;-65
2021/12/14 06:12:34;;;;;;;5.03;3.78;;;;;;;;;;4970983;28;20051;-65
2021/12/14 06:15:00;;;;;;;7.53;4.30;;;;;;;;;;4971517;28;20027;-65
2021/12/14 06:17:32;;;;;;;7.43;4.10;;;;;;;;;;4971275;28;20481;-65
2021/12/14 06:19:58;;;;;;;7.72;3.97;;;;;;;;;;5050031;28;20039;-65
2021/12/14 06:22:24;;;;;;;6.35;4.38;;;;;;;;;;4994665;28;20035;-65
2021/12/14 06:24:52;;;;;;;4.82;3.90;;;;;;;;;;4971352;28;20114;-65
2021/12/14 06:27:20;;;;;;;8.32;4.28;;;;;;;;;;4971248;28;20031;-65
2021/12/14 06:29:59;;;;;;;6.03;3.70;;;;;;;;;;4971542;28;20413;-64
2021/12/14 06:32:28;;;;;;;4.93;3.80;;;;;;;;;;4971081;28;20019;-65
2021/12/14 06:35:06;;;;;;;7.78;4.10;;;;;;;;;;4971152;28;20397;-65
2021/12/14 06:40:10;;;;;;;6.28;4.38;;;;;;;;;;4971566;28;20039;-66
2021/12/14 06:42:41;;;;;;;5.07;3.90;;;;;;;;;;4971091;28;20031;-65
2021/12/14 06:45:09;;;;;;;10.52;4.00;;;;;;;;;;4971107;28;20022;-66
2021/12/14 06:47:35;;;;;;;6.78;4.03;;;;;;;;;;4969768;28;20031;-65
2021/12/14 06:50:07;;;;;;;5.35;4.18;;;;;;;;;;4969824;28;20488;-67
2021/12/14 06:52:34;;;;;;;6.28;4.18;;;;;;;;;;5019567;28;20056;-65
2021/12/14 06:55:00;;;;;;;6.50;4.03;;;;;;;;;;5072518;28;20066;-65
2021/12/14 06:57:26;;;;;;;7.10;3.85;;;;;;;;;;5072480;28;20024;-66
2021/12/14 06:59:54;;;;;;;6.43;4.43;;;;;;;;;;5072814;28;20064;-65
2021/12/14 07:02:21;;;;;;;4.95;4.40;;;;;;;;;;5072854;28;20028;-65
2021/12/14 07:04:49;;;;;;;9.52;4.05;;;;;;;;;;5026439;28;20035;-65
2021/12/14 07:07:18;;;;;;;8.70;4.13;;;;;;;;;;4969486;28;20085;-65
2021/12/14 07:09:45;;;;;;;6.22;4.00;;;;;;;;;;4970867;28;20023;-66
2021/12/14 07:12:23;;;;;;;5.82;3.88;;;;;;;;;;4970815;28;20057;-65
2021/12/14 07:14:49;;;;;;;7.97;3.70;;;;;;;;;;4969604;28;20501;-65
2021/12/14 07:17:20;;;;;;;8.15;3.88;;;;;;;;;;4970732;28;20512;-63
2021/12/14 07:19:46;;;;;;;14.88;4.28;;;;;;;;;;5042458;28;20032;-65
2021/12/14 07:22:13;;;;;;;5.18;3.63;;;;;;;;;;5072219;28;20025;-65
2021/12/14 07:24:39;;;;;;;9.18;3.58;;;;;;;;;;5070946;28;20074;-64
2021/12/14 07:27:20;;;;;;;8.10;3.70;;;;;;;;;;5072334;28;20037;-63
2021/12/14 07:29:46;;;;;;;14.60;3.67;;;;;;;;;;4995467;28;20061;-64
2021/12/14 07:32:13;;;;;;;7.07;3.47;;;;;;;;;;4970730;28;20074;-63
2021/12/14 07:34:39;;;;;;;9.60;3.72;;;;;;;;;;4970543;28;20120;-64
2021/12/14 07:37:05;;;;;;;8.40;3.58;;;;;;;;;;4970662;28;20459;-65
2021/12/14 07:39:31;;;;;;;12.45;4.18;;;;;;;;;;4969537;28;20113;-64
2021/12/14 07:41:59;;;;;;;7.07;3.47;;;;;;;;;;4970517;28;20463;-63
2021/12/14 07:44:32;;;;;;;3.90;3.40;;;;;;;;;;4970470;28;20474;-63
2021/12/14 07:47:06;;;;;;;13.52;3.80;;;;;;;;;;4970404;28;20467;-63
2021/12/14 07:49:37;;;;;;;8.15;3.85;;;;;;;;;;4972660;28;20122;-63
2021/12/14 07:52:11;;;;;;;8.90;4.28;;;;;;;;;;4999405;28;20052;-64
2021/12/14 07:54:37;;;;;;;6.95;3.50;;;;;;;;;;5075536;28;20036;-64
2021/12/14 07:57:07;;;;;;;7.43;3.53;;;;;;;;;;4988948;28;20377;-64
2021/12/14 07:59:35;;;;;;;9.63;3.58;;;;;;;;;;4954202;28;20454;-64
2021/12/14 08:02:07;;;;;;;5.63;4.03;;;;;;;;;;4954267;28;20032;-65
2021/12/14 08:04:34;;;;;;;5.50;3.90;;;;;;;;;;4954192;28;20031;-65
2021/12/14 08:07:00;;;;;;;7.18;3.70;;;;;;;;;;4954233;28;20262;-65
2021/12/14 08:09:35;;;;;;;5.55;3.63;;;;;;;;;;4954241;28;20563;-63
2021/12/14 08:12:05;;;;;;;7.15;3.78;;;;;;;;;;4953920;28;20043;-64
2021/12/14 08:14:31;;;;;;;5.53;4.03;;;;;;;;;;4953933;28;20043;-65
2021/12/14 08:16:59;;;;;;;8.20;4.65;;;;;;;;;;4956257;28;20046;-64
2021/12/14 08:19:30;;;;;;;7.75;3.53;;;;;;;;;;4961714;28;20035;-65
2021/12/14 08:21:57;;;;;;;7.18;4.63;;;;;;;;;;4956588;28;20035;-65
2021/12/14 08:24:23;;;;;;;4.75;3.40;;;;;;;;;;4982313;28;20783;-63
2021/12/14 08:26:51;;;;;;;6.28;3.58;;;;;;;;;;5035505;28;20032;-67
2021/12/14 08:29:19;;;;;;;5.47;3.83;;;;;;;;;;4995853;28;20035;-66
2021/12/14 08:31:47;;;;;;;4.72;2.85;;;;;;;;;;4953107;28;20076;-65
2021/12/14 08:34:18;;;;;;;6.03;3.22;;;;;;;;;;4963610;28;20041;-65
2021/12/14 08:36:47;;;;;;;7.07;3.08;;;;;;;;;;4972529;28;20023;-65
2021/12/14 08:39:18;;;;;;;6.35;2.92;;;;;;;;;;4972205;28;20034;-66
2021/12/14 08:41:50;;;;;;;6.30;3.03;;;;;;;;;;4972482;28;20042;-65
2021/12/14 08:44:21;;;;;;;4.90;2.83;;;;;;;;;;4965823;28;20038;-65
2021/12/14 08:46:50;;;;;;;8.45;3.20;;;;;;;;;;4952403;28;20031;-67
2021/12/14 08:49:17;;;;;;;3.75;2.88;;;;;;;;;;4953498;28;20395;-66
2021/12/14 08:51:44;;;;;;;5.45;2.58;;;;;;;;;;4966118;28;20019;-66
2021/12/14 08:54:18;;;;;;;3.47;2.55;;;;;;;;;;4968073;28;20035;-66
2021/12/14 08:56:51;;;;;;;5.05;2.75;;;;;;;;;;4961768;28;20030;-67
2021/12/14 08:59:18;;;;;;;5.43;2.45;;;;;;;;;;4961309;28;20042;-66
2021/12/14 09:01:44;;;;;;;4.30;2.28;;;;;;;;;;4967267;28;20027;-66
2021/12/14 09:04:13;;;;;;;3.65;2.45;;;;;;;;;;4972558;28;20363;-65
2021/12/14 09:06:40;;;;;;;4.60;2.65;;;;;;;;;;4972836;28;20089;-66
2021/12/14 09:09:09;;;;;;;5.70;2.45;;;;;;;;;;4972491;28;20034;-66
2021/12/14 09:11:36;;;;;;;4.13;2.33;;;;;;;;;;4972484;28;20083;-65
2021/12/14 09:14:04;;;;;;;4.80;2.53;;;;;;;;;;4971977;28;20136;-66
2021/12/14 09:16:31;;;;;;;6.32;2.15;;;;;;;;;;4971340;28;20034;-66
2021/12/14 09:19:06;;;;;;;2.65;2.30;;;;;;;;;;5009795;28;20040;-64
2021/12/14 09:21:38;;;;;;;3.50;2.67;;;;;;;;;;5072709;28;20035;-66
2021/12/14 09:24:06;;;;;;;7.90;2.42;;;;;;;;;;5074017;28;20025;-65
2021/12/14 09:26:35;;;;;;;11.68;2.15;;;;;;;;;;5072861;28;20020;-64
2021/12/14 09:29:02;;;;;;;10.27;3.78;;;;;;;;;;5073649;28;20024;-64
2021/12/14 09:31:32;;;;;;;8.57;4.10;;;;;;;;;;5062754;28;20027;-64
2021/12/14 09:33:59;;;;;;;8.30;4.13;;;;;;;;;;4965580;28;20487;-64
2021/12/14 09:36:26;;;;;;;6.45;3.47;;;;;;;;;;4953025;28;20589;-64
2021/12/14 09:38:55;;;;;;;7.82;3.58;;;;;;;;;;4953046;28;20038;-64
2021/12/14 09:41:23;;;;;;;8.45;3.85;;;;;;;;;;4953126;29;20104;-69
2021/12/14 09:43:49;;;;;;;9.48;3.92;;;;;;;;;;4952929;28;20399;-71
2021/12/14 09:46:16;;;;;;;10.82;4.20;;;;;;;;;;4953510;29;20141;-70
2021/12/14 09:48:44;;;;;;;8.88;4.20;;;;;;;;;;4953131;28;20034;-70
2021/12/14 09:51:13;;;;;;;8.73;3.97;;;;;;;;;;4953235;28;20030;-67
2021/12/14 09:53:41;;;;;;;7.10;4.32;;;;;;;;;;5068597;28;20031;-68
2021/12/14 09:56:08;;;;;;;10.18;4.82;;;;;;;;;;5073791;28;20032;-69
2021/12/14 09:58:46;;;;;;;6.22;4.60;;;;;;;;;;5073653;28;20024;-69
2021/12/14 10:01:16;;;;;;;7.05;4.68;;;;;;;;;;5048626;28;20102;-71
2021/12/14 10:03:44;;;;;;;9.68;4.57;;;;;;;;;;4950564;28;20043;-70
2021/12/14 10:06:12;;;;;;;5.72;4.50;;;;;;;;;;4957809;28;20114;-65
2021/12/14 10:08:42;;;;;;;8.48;4.60;;;;;;;;;;4960402;28;20034;-68
2021/12/14 10:11:11;;;;;;;10.40;4.07;;;;;;;;;;4959986;28;20023;-69
2021/12/14 10:13:40;;;;;;;5.90;4.80;;;;;;;;;;4956915;28;20039;-68
2021/12/14 10:16:09;;;;;;;5.68;4.38;;;;;;;;;;4952584;29;20038;-67
2021/12/14 10:18:41;;;;;;;6.97;4.70;;;;;;;;;;4952758;28;20110;-67
2021/12/14 10:21:07;;;;;;;6.22;4.65;;;;;;;;;;4952668;28;20019;-68
2021/12/14 10:23:34;;;;;;;10.98;4.82;;;;;;;;;;4952234;28;20050;-67
2021/12/14 10:26:01;;;;;;;9.20;4.95;;;;;;;;;;4952616;28;20019;-69
2021/12/14 10:28:28;;;;;;;9.77;4.57;;;;;;;;;;4952539;28;20027;-70
2021/12/14 10:30:57;;;;;;;9.52;4.40;;;;;;;;;;4952916;28;20020;-70
2021/12/14 10:33:26;;;;;;;9.82;4.05;;;;;;;;;;4957520;28;20355;-70
2021/12/14 10:35:55;;;;;;;8.48;4.47;;;;;;;;;;4971840;28;20019;-71
2021/12/14 10:38:30;;;;;;;13.90;5.18;;;;;;;;;;4972020;28;20042;-70
2021/12/14 10:43:45;;;;;;;9.90;4.13;;;;;;;;;;4972001;28;20080;-69
2021/12/14 10:46:14;;;;;;;7.60;5.05;;;;;;;;;;4963532;28;20034;-69
2021/12/14 10:48:42;;;;;;;27.27;5.57;;;;;;;;;;4957407;28;20054;-67
2021/12/14 10:51:11;;;;;;;12.73;4.50;;;;;;;;;;4951949;28;20373;-69
2021/12/14 10:53:42;;;;;;;16.80;4.20;;;;;;;;;;5001891;28;20035;-64
2021/12/14 10:56:13;;;;;;;19.15;5.05;;;;;;;;;;4970658;28;20037;-64
2021/12/14 10:58:40;;;;;;;9.40;4.15;;;;;;;;;;4968901;28;20039;-64
2021/12/14 11:01:08;;;;;;;15.07;5.60;;;;;;;;;;4954970;28;20020;-64
2021/12/14 11:03:36;;;;;;;12.27;4.60;;;;;;;;;;4966047;28;20374;-64
2021/12/14 11:06:05;;;;;;;13.05;4.65;;;;;;;;;;4971090;28;20408;-71
2021/12/14 11:11:00;;;;;;;24.55;4.70;;;;;;;;;;4971344;28;20088;-69
2021/12/14 11:13:27;;;;;;;12.88;4.43;;;;;;;;;;4971085;28;20124;-69
2021/12/14 11:15:55;;;;;;;9.65;4.63;;;;;;;;;;4971162;28;20520;-68
2021/12/14 11:18:23;;;;;;;14.63;4.53;;;;;;;;;;4969861;28;20027;-69
2021/12/14 11:20:54;;;;;;;11.50;4.63;;;;;;;;;;4951764;29;20024;-69
2021/12/14 11:23:25;;;;;;;17.88;5.05;;;;;;;;;;4952962;28;20031;-69
2021/12/14 11:25:51;;;;;;;14.15;4.38;;;;;;;;;;4954175;28;20031;-69
2021/12/14 11:28:31;;;;;;;14.82;4.68;;;;;;;;;;4955443;29;20081;-69
2021/12/14 11:31:03;;;;;;;12.13;4.75;;;;;;;;;;4955189;28;20452;-69
2021/12/14 11:33:32;;;;;;;18.88;5.28;;;;;;;;;;4955272;29;20063;-70
2021/12/14 11:35:59;;;;;;;24.77;5.20;;;;;;;;;;4955320;28;20020;-69
2021/12/14 11:38:27;;;;;;;21.45;5.88;;;;;;;;;;4955107;29;20394;-70
2021/12/14 11:40:54;;;;;;;19.65;5.22;;;;;;;;;;4954923;29;20015;-68
2021/12/14 11:43:23;;;;;;;16.25;4.22;;;;;;;;;;4955239;28;20031;-69
2021/12/14 11:45:49;;;;;;;17.85;5.05;;;;;;;;;;4955163;28;20055;-69
2021/12/14 11:48:26;;;;;;;10.32;4.70;;;;;;;;;;4954986;29;20779;-69
2021/12/14 11:50:52;;;;;;;21.23;5.22;;;;;;;;;;4953894;28;20544;-69
2021/12/14 11:53:20;;;;;;;21.48;4.80;;;;;;;;;;4974192;28;20031;-62
2021/12/14 11:55:49;;;;;;;36.05;5.10;;;;;;;;;;4973989;28;20441;-64
2021/12/14 11:58:26;;;;;;;24.75;4.53;;;;;;;;;;4973976;28;20083;-68
2021/12/14 12:00:55;;;;;;;19.27;4.60;;;;;;;;;;4973513;28;20537;-68
2021/12/14 12:03:41;;;;;;;18.45;4.18;;;;;;;;;;4973588;28;20030;-68
2021/12/14 12:06:25;;;;;;;28.55;4.32;;;;;;;;;;4973566;28;20038;-68
2021/12/14 12:11:41;;;;;;;29.90;5.93;;;;;;;;;;4973571;28;20425;-68
2021/12/14 12:14:19;;;;;;;30.52;3.72;;;;;;;;;;4973280;28;20042;-68
2021/12/14 12:16:45;;;;;;;20.58;4.15;;;;;;;;;;4973391;28;20027;-67
2021/12/14 12:19:16;;;;;;;14.25;3.50;;;;;;;;;;5018987;28;20025;-69
2021/12/14 12:21:43;;;;;;;12.00;3.38;;;;;;;;;;5074270;28;20435;-68
2021/12/14 12:24:28;;;;;;;16.17;3.17;;;;;;;;;;5074994;28;20059;-68
2021/12/14 12:26:55;;;;;;;20.73;3.35;;;;;;;;;;5074955;28;20030;-68
2021/12/14 12:29:26;;;;;;;8.30;2.90;;;;;;;;;;5017222;28;20093;-68
2021/12/14 12:32:05;;;;;;;8.45;3.20;;;;;;;;;;4959173;28;20019;-68
2021/12/14 12:34:35;;;;;;;15.07;3.75;;;;;;;;;;4953086;28;20043;-68
2021/12/14 12:37:01;;;;;;;14.60;3.00;;;;;;;;;;4954220;28;20031;-78
2021/12/14 12:39:29;;;;;;;12.73;3.05;;;;;;;;;;4954946;29;20415;-75
2021/12/14 12:42:00;;;;;;;12.55;2.83;;;;;;;;;;4965889;28;20370;-75
2021/12/14 12:44:31;;;;;;;19.48;3.22;;;;;;;;;;4975781;28;20027;-76
2021/12/14 12:46:58;;;;;;;11.20;2.90;;;;;;;;;;4972409;28;20027;-75
2021/12/14 12:49:28;;;;;;;7.93;2.80;;;;;;;;;;4973198;28;20093;-68
2021/12/14 12:51:56;;;;;;;10.35;2.83;;;;;;;;;;4988754;28;20093;-67
2021/12/14 12:54:25;;;;;;;8.70;2.58;;;;;;;;;;5073936;28;20093;-70
2021/12/14 12:57:11;;;;;;;5.82;2.22;;;;;;;;;;5074833;28;20098;-69
2021/12/14 12:59:43;;;;;;;11.48;2.88;;;;;;;;;;5074400;28;20048;-68
2021/12/14 13:02:12;;;;;;;6.18;2.10;;;;;;;;;;5074816;28;20472;-77
2021/12/14 13:04:42;;;;;;;8.20;2.60;;;;;;;;;;5075024;28;20079;-70
2021/12/14 13:07:09;;;;;;;8.82;2.67;;;;;;;;;;5075735;28;20024;-86
2021/12/14 13:09:53;;;;;;;6.57;2.38;;;;;;;;;;5074849;28;20025;-71
2021/12/14 13:12:38;;;;;;;5.40;2.38;;;;;;;;;;4958687;28;20475;-62
2021/12/14 13:15:04;;;;;;;14.65;2.90;;;;;;;;;;4953910;29;20108;-70
2021/12/14 13:17:30;;;;;;;23.67;3.10;;;;;;;;;;4953089;28;20058;-75
2021/12/14 13:20:00;;;;;;;18.05;3.25;;;;;;;;;;4955265;28;20020;-82
2021/12/14 13:22:26;;;;;;;21.38;3.28;;;;;;;;;;4956548;29;20035;-76
2021/12/14 13:24:52;;;;;;;14.75;2.88;;;;;;;;;;4955242;29;20031;-76
2021/12/14 13:27:21;;;;;;;24.83;3.70;;;;;;;;;;4954493;28;20405;-76
2021/12/14 13:29:53;;;;;;;21.80;4.07;;;;;;;;;;4955869;28;20027;-84
2021/12/14 13:32:22;;;;;;;31.53;3.60;;;;;;;;;;4957302;28;20467;-79
2021/12/14 13:34:48;;;;;;;18.23;3.72;;;;;;;;;;4954367;28;20122;-74
2021/12/14 13:37:16;;;;;;;12.10;3.53;;;;;;;;;;4953769;28;20062;-71
2021/12/14 13:39:42;;;;;;;30.63;3.50;;;;;;;;;;4953523;28;20031;-64
2021/12/14 13:42:08;;;;;;;35.78;3.70;;;;;;;;;;4953077;28;20030;-63
2021/12/14 13:44:36;;;;;;;41.60;3.92;;;;;;;;;;4958018;28;20041;-64
2021/12/14 13:47:04;;;;;;;54.75;4.00;;;;;;;;;;4970837;28;20027;-62
2021/12/14 13:49:30;;;;;;;27.25;3.28;;;;;;;;;;4972012;28;20026;-62
2021/12/14 13:51:56;;;;;;;24.88;3.38;;;;;;;;;;4970713;28;20034;-69
2021/12/14 13:54:23;;;;;;;34.13;2.92;;;;;;;;;;4970531;28;20398;-64
2021/12/14 13:56:50;;;;;;;19.55;3.25;;;;;;;;;;4970701;28;20027;-63
2021/12/14 13:59:17;;;;;;;11.43;3.53;;;;;;;;;;4971818;28;20110;-63
2021/12/14 14:01:48;;;;;;;20.65;3.45;;;;;;;;;;4971717;28;20075;-63
2021/12/14 14:04:16;;;;;;;20.50;3.10;;;;;;;;;;4972033;28;20053;-62
2021/12/14 14:06:42;;;;;;;12.43;2.80;;;;;;;;;;4971964;28;20114;-64
2021/12/14 14:09:10;;;;;;;14.98;2.90;;;;;;;;;;4968838;28;20391;-63
2021/12/14 14:11:51;;;;;;;14.55;2.97;;;;;;;;;;4970927;28;20076;-66
2021/12/14 14:14:17;;;;;;;16.63;3.03;;;;;;;;;;4969229;28;20039;-66
2021/12/14 14:16:59;;;;;;;13.93;2.63;;;;;;;;;;4972439;28;20078;-67
2021/12/14 14:19:36;;;;;;;9.85;2.80;;;;;;;;;;5028819;28;20042;-72
2021/12/14 14:22:04;;;;;;;17.83;3.13;;;;;;;;;;5073240;28;20021;-67
2021/12/14 14:24:32;;;;;;;12.32;2.58;;;;;;;;;;5072144;28;20112;-66
2021/12/14 14:26:58;;;;;;;11.63;2.67;;;;;;;;;;5004664;28;20035;-66
2021/12/14 14:29:25;;;;;;;22.05;2.95;;;;;;;;;;4964364;28;20115;-69
2021/12/14 14:35:11;;;;;;;14.60;3.10;;;;;;;;;;4931117;29;20047;-71
2021/12/14 14:37:38;;;;;;;7.85;2.85;;;;;;;;;;4947188;28;20044;-73
2021/12/14 14:40:06;;;;;;;11.00;2.75;;;;;;;;;;4952026;28;20019;-66
2021/12/14 14:42:34;;;;;;;20.98;2.35;;;;;;;;;;4951293;28;20035;-67
2021/12/14 14:45:10;;;;;;;11.05;2.90;;;;;;;;;;4952814;28;20030;-68
2021/12/14 14:47:37;;;;;;;28.45;3.45;;;;;;;;;;4970346;28;20089;-68
2021/12/14 14:50:30;;;;;;;14.48;2.38;;;;;;;;;;4971475;28;20035;-69
2021/12/14 14:52:59;;;;;;;6.93;2.40;;;;;;;;;;5034046;28;20491;-68
2021/12/14 14:55:34;;;;;;;5.53;2.63;;;;;;;;;;5071413;28;20036;-69
2021/12/14 14:58:02;;;;;;;9.18;2.47;;;;;;;;;;5073320;28;20044;-68
2021/12/14 15:00:34;;;;;;;19.73;2.85;;;;;;;;;;5076724;28;20435;-68
2021/12/14 15:03:02;;;;;;;6.43;2.40;;;;;;;;;;5077137;28;20128;-68
2021/12/14 15:05:41;;;;;;;15.50;2.47;;;;;;;;;;5076737;28;20047;-69
2021/12/14 15:08:14;;;;;;;8.15;3.20;;;;;;;;;;5077003;28;20020;-69
2021/12/14 15:10:40;;;;;;;;;;;;;;;;;;5077144;28;20028;-69
2021/12/14 15:13:22;;;;;;;8.02;2.53;;;;;;;;;;5076433;28;19943;-69
2021/12/14 15:16:00;;;;;;;7.90;2.30;;;;;;;;;;5007565;28;20371;-68
2021/12/14 15:18:46;;;;;;;11.70;2.30;;;;;;;;;;4974398;28;20027;-69
2021/12/14 15:21:36;;;;;;;7.15;2.20;;;;;;;;;;4974539;28;20035;-69
2021/12/14 15:24:21;;;;;;;11.07;2.65;;;;;;;;;;4984038;28;20030;-68
2021/12/14 15:27:05;;;;;;;6.35;2.08;;;;;;;;;;4974221;28;20050;-68